Time;durP1;ratioP1;P1;durP2;ratioP2;P2;SDS_P1;SDS_P2;PMS_P1;PMS_P2;Temp;Humidity;BMP_temperature;BMP_pressure;BME280_temperature;BME280_humidity;BME280_pressure;Samples;Min_cycle;Max_cycle;Signal;HPM_P1;HPM_P2
2021/05/21 00:01:18;;;;;;;;;;;;;;;18.12;42.92;101096.50;5052171;28;20516;-83
2021/05/21 00:04:03;;;;;;;;;;;;;;;18.23;42.69;101092.06;5048138;28;20296;-82
2021/05/21 00:06:48;;;;;;;;;;;;;;;18.05;39.66;101079.81;5045608;28;20300;-82
2021/05/21 00:12:35;;;;;;;;;;;;;;;17.69;39.93;101075.38;5047356;28;19913;-81
2021/05/21 00:15:20;;;;;;;;;;;;;;;17.69;41.79;101073.44;5044239;28;19912;-83
2021/05/21 00:18:05;;;;;;;;;;;;;;;17.62;40.74;101072.47;5049229;28;20293;-83
2021/05/21 00:21:09;;;;;;;;;;;;;;;17.36;41.42;101070.19;5042253;28;20377;-83
2021/05/21 00:23:53;;;;;;;;;;;;;;;17.43;42.59;101071.16;5044323;28;19913;-83
2021/05/21 00:26:38;;;;;;;;;;;;;;;17.54;42.59;101069.47;5047665;28;19913;-82
2021/05/21 00:29:22;;;;;;;;;;;;;;;17.47;41.05;101063.00;5046552;28;20201;-82
2021/05/21 00:32:07;;;;;;;;;;;;;;;17.63;43.64;101063.84;5046490;28;19917;-82
2021/05/21 00:34:52;;;;;;;;;;;;;;;17.56;43.45;101071.88;5044283;28;19913;-80
2021/05/21 00:37:37;;;;;;;;;;;;;;;17.44;41.13;101075.50;5045732;28;19917;-81
2021/05/21 00:40:22;;;;;;;;;;;;;;;17.42;42.29;101079.78;5042853;28;20385;-80
2021/05/21 00:43:06;;;;;;;;;;;;;;;17.55;43.80;101081.28;5044423;28;19928;-79
2021/05/21 00:45:51;;;;;;;;;;;;;;;17.73;43.19;101079.81;5048214;28;19913;-80
2021/05/21 00:51:40;;;;;;;;;;;;;;;17.64;40.84;101070.13;5048357;28;19913;-82
2021/05/21 00:54:24;;;;;;;;;;;;;;;17.79;43.22;101067.41;5043413;28;19913;-82
2021/05/21 00:57:08;;;;;;;;;;;;;;;17.85;42.25;101068.72;5044584;28;19917;-82
2021/05/21 00:59:54;;;;;;;;;;;;;;;17.55;40.90;101059.28;5048522;28;19913;-83
2021/05/21 01:02:39;;;;;;;;;;;;;;;17.75;42.87;101054.72;5045822;28;20381;-79
2021/05/21 01:05:23;;;;;;;;;;;;;;;17.64;42.35;101048.13;5047383;28;19916;-82
2021/05/21 01:08:08;;;;;;;;;;;;;;;17.70;42.26;101043.97;5047227;28;19913;-81
2021/05/21 01:10:52;;;;;;;;;;;;;;;17.83;42.88;101054.50;5045337;28;19913;-80
2021/05/21 01:13:38;;;;;;;;;;;;;;;17.84;42.59;101045.13;5038861;28;19912;-83
2021/05/21 01:16:23;;;;;;;;;;;;;;;17.86;41.99;101040.06;5046334;28;19917;-83
2021/05/21 01:19:07;;;;;;;;;;;;;;;17.69;40.96;101040.41;5045347;28;19913;-80
2021/05/21 01:21:53;;;;;;;;;;;;;;;17.60;42.39;101030.75;5057274;22;19921;-85
2021/05/21 01:24:38;;;;;;;;;;;;;;;17.77;43.11;101025.69;5043702;28;19916;-84
2021/05/21 01:27:24;;;;;;;;;;;;;;;17.92;42.78;101021.34;5037379;28;19917;-86
2021/05/21 01:30:09;;;;;;;;;;;;;;;17.84;42.00;101014.06;5046523;28;19912;-86
2021/05/21 01:32:55;;;;;;;;;;;;;;;17.72;41.62;101006.72;5031538;28;20382;-84
2021/05/21 01:35:40;;;;;;;;;;;;;;;17.52;41.88;101013.25;5042068;28;19913;-85
2021/05/21 01:38:25;;;;;;;;;;;;;;;17.51;42.34;101011.66;5043818;28;20295;-85
2021/05/21 01:41:09;;;;;;;;;;;;;;;17.72;43.11;101012.22;5042584;28;19912;-85
2021/05/21 01:43:55;;;;;;;;;;;;;;;17.83;42.29;101017.94;5037087;28;19917;-84
2021/05/21 01:46:40;;;;;;;;;;;;;;;17.93;42.43;101023.72;5050275;28;20371;-84
2021/05/21 01:49:24;;;;;;;;;;;;;;;17.96;42.23;101024.97;5045948;28;19913;-85
2021/05/21 01:55:13;;;;;;;;;;;;;;;18.02;42.03;101011.72;5044056;28;19912;-85
2021/05/21 01:57:57;;;;;;;;;;;;;;;18.04;41.96;101012.94;5030553;28;19916;-85
2021/05/21 02:00:43;;;;;;;;;;;;;;;18.06;41.88;101012.59;5048523;28;19913;-84
2021/05/21 02:03:46;;;;;;;;;;;;;;;18.05;41.89;101002.75;5043984;28;19913;-83
2021/05/21 02:09:57;;;;;;;;;;;;;;;18.02;41.81;101006.22;5052257;28;19913;-83
2021/05/21 02:13:00;;;;;;;;;;;;;;;18.04;41.80;100998.41;5044344;28;20291;-85
2021/05/21 02:15:46;;;;;;;;;;;;;;;17.99;41.83;100993.16;5048529;28;19913;-86
2021/05/21 02:18:31;;;;;;;;;;;;;;;17.93;41.50;100990.69;5040430;28;20287;-85
2021/05/21 02:21:15;;;;;;;;;;;;;;;17.92;42.04;100986.38;5041670;28;19912;-86
2021/05/21 02:24:01;;;;;;;;;;;;;;;17.85;41.28;100988.13;5048563;28;19913;-87
2021/05/21 02:26:46;;;;;;;;;;;;;;;17.51;40.36;101008.91;5038251;28;19913;-87
2021/05/21 02:29:49;;;;;;;;;;;;;;;16.46;43.73;101019.31;5038049;28;19919;-86
2021/05/21 02:32:34;;;;;;;;;;;;;;;16.38;44.31;101003.81;5043260;28;19917;-85
2021/05/21 02:35:18;;;;;;;;;;;;;;;16.26;44.29;101012.84;5049885;28;19912;-86
2021/05/21 02:41:06;;;;;;;;;;;;;;;16.15;44.81;100995.25;5044291;28;20325;-83
2021/05/21 02:43:50;;;;;;;;;;;;;;;15.99;44.32;101005.38;5043514;28;19913;-82
2021/05/21 02:46:35;;;;;;;;;;;;;;;15.89;44.75;101003.09;5039049;28;20274;-84
2021/05/21 02:49:20;;;;;;;;;;;;;;;15.86;44.24;100995.53;5044038;28;19913;-86
2021/05/21 02:55:10;;;;;;;;;;;;;;;16.12;46.29;100990.47;5040051;28;19917;-85
2021/05/21 02:57:55;;;;;;;;;;;;;;;16.51;46.09;100996.31;5045703;28;20391;-84
2021/05/21 03:00:39;;;;;;;;;;;;;;;16.78;45.63;100995.56;5046751;28;19913;-84
2021/05/21 03:03:24;;;;;;;;;;;;;;;16.98;44.73;100994.56;5044515;28;20290;-84
2021/05/21 03:06:08;;;;;;;;;;;;;;;17.01;44.83;100998.56;5038347;28;19917;-78
2021/05/21 03:08:53;;;;;;;;;;;;;;;17.16;44.86;100991.50;5042699;28;19913;-84
2021/05/21 03:11:38;;;;;;;;;;;;;;;17.13;44.96;100992.19;5037420;28;19913;-84
2021/05/21 03:14:22;;;;;;;;;;;;;;;17.16;45.30;100986.81;5035505;28;19913;-83
2021/05/21 03:17:07;;;;;;;;;;;;;;;17.32;45.16;100989.56;5037504;28;20375;-81
2021/05/21 03:19:52;;;;;;;;;;;;;;;17.36;44.89;100990.44;5031934;28;19917;-83
2021/05/21 03:22:36;;;;;;;;;;;;;;;17.43;44.87;100994.16;5022848;28;19913;-84
2021/05/21 03:25:41;;;;;;;;;;;;;;;17.38;44.76;100985.38;5020449;28;19913;-84
2021/05/21 03:28:45;;;;;;;;;;;;;;;17.48;44.71;100984.84;5029596;28;19913;-84
2021/05/21 03:31:30;;;;;;;;;;;;;;;17.45;44.60;100982.81;5039902;28;20379;-83
2021/05/21 03:34:15;;;;;;;;;;;;;;;17.42;44.76;100983.53;5037030;28;19913;-85
2021/05/21 03:37:19;;;;;;;;;;;;;;;17.50;44.66;100985.31;5035890;28;19917;-84
2021/05/21 03:40:04;;;;;;;;;;;;;;;17.39;44.45;100984.22;5041524;28;19916;-85
2021/05/21 03:42:49;;;;;;;;;;;;;;;17.11;45.06;100981.56;5043094;28;19924;-85
2021/05/21 03:45:33;;;;;;;;;;;;;;;16.97;45.35;100992.94;5044259;28;19913;-84
2021/05/21 03:48:18;;;;;;;;;;;;;;;16.50;44.27;100979.06;5036145;28;19913;-85
2021/05/21 03:51:03;;;;;;;;;;;;;;;16.54;46.73;100976.41;5020560;28;19917;-83
2021/05/21 03:53:48;;;;;;;;;;;;;;;16.40;47.67;100973.28;5033655;28;19912;-84
2021/05/21 03:56:33;;;;;;;;;;;;;;;16.39;47.43;100979.91;5034646;28;19913;-85
2021/05/21 03:59:18;;;;;;;;;;;;;;;16.35;47.10;100979.81;5039944;28;20295;-83
2021/05/21 04:02:03;;;;;;;;;;;;;;;16.18;47.03;100977.31;5022919;28;19912;-85
2021/05/21 04:04:47;;;;;;;;;;;;;;;16.19;48.01;100982.47;5021669;28;19913;-83
2021/05/21 04:07:32;;;;;;;;;;;;;;;16.60;47.20;100983.31;5039547;28;20295;-82
2021/05/21 04:10:17;;;;;;;;;;;;;;;16.87;46.64;100985.22;5034638;28;19912;-84
2021/05/21 04:13:02;;;;;;;;;;;;;;;17.04;46.17;100995.09;5035999;28;20295;-83
2021/05/21 04:15:46;;;;;;;;;;;;;;;17.03;45.42;100999.00;5040029;28;19913;-81
2021/05/21 04:18:31;;;;;;;;;;;;;;;16.88;45.95;101011.53;5023510;28;20367;-85
2021/05/21 04:21:18;;;;;;;;;;;;;;;16.78;46.33;101014.00;5040987;28;19913;-85
2021/05/21 04:24:02;;;;;;;;;;;;;;;16.66;46.29;101018.38;5039695;28;19913;-83
2021/05/21 04:26:47;;;;;;;;;;;;;;;16.66;46.73;101021.13;5037361;28;19913;-85
2021/05/21 04:29:51;;;;;;;;;;;;;;;16.81;46.82;101016.81;5021179;28;19912;-83
2021/05/21 04:32:35;;;;;;;;;;;;;;;17.03;46.74;101026.47;5038818;28;19913;-84
2021/05/21 04:35:20;;;;;;;;;;;;;;;17.16;46.34;101018.97;5036024;28;20026;-85
2021/05/21 04:38:05;;;;;;;;;;;;;;;16.85;47.13;101022.44;5035040;28;19917;-85
2021/05/21 04:40:49;;;;;;;;;;;;;;;16.27;47.19;101016.41;5040963;28;19913;-84
2021/05/21 04:43:35;;;;;;;;;;;;;;;16.48;47.72;101024.47;5037632;28;20279;-85
2021/05/21 04:46:39;;;;;;;;;;;;;;;16.83;47.37;101031.03;5034441;28;20378;-83
2021/05/21 04:49:32;;;;;;;;;;;;;;;16.95;47.21;101028.25;5038476;28;20302;-84
2021/05/21 04:52:37;;;;;;;;;;;;;;;17.10;47.08;101021.97;5022058;28;19924;-84
2021/05/21 04:55:41;;;;;;;;;;;;;;;16.73;47.13;101020.53;5033943;28;20367;-84
2021/05/21 04:58:25;;;;;;;;;;;;;;;16.64;48.23;101015.19;5041670;28;19916;-85
2021/05/21 05:01:11;;;;;;;;;;;;;;;16.43;47.89;101011.00;5054275;28;19912;-83
2021/05/21 05:03:55;;;;;;;;;;;;;;;16.54;48.11;101023.91;5048286;28;19913;-84
2021/05/21 05:06:41;;;;;;;;;;;;;;;16.69;48.40;101027.88;5036528;28;19912;-83
2021/05/21 05:12:28;;;;;;;;;;;;;;;17.16;47.85;101043.72;5040570;28;19913;-83
2021/05/21 05:15:13;;;;;;;;;;;;;;;17.04;48.03;101042.63;5016524;28;19913;-83
2021/05/21 05:17:58;;;;;;;;;;;;;;;16.88;48.97;101043.72;5004997;28;19917;-83
2021/05/21 05:20:43;;;;;;;;;;;;;;;17.08;48.38;101045.44;5022920;28;19913;-84
2021/05/21 05:23:28;;;;;;;;;;;;;;;16.89;49.30;101043.38;5034164;28;19913;-83
2021/05/21 05:26:14;;;;;;;;;;;;;;;16.81;49.81;101049.03;5035752;28;19917;-85
2021/05/21 05:28:59;;;;;;;;;;;;;;;16.98;49.22;101049.50;5039838;28;19913;-83
2021/05/21 05:32:02;;;;;;;;;;;;;;;16.68;50.18;101051.00;5019936;28;20318;-84
2021/05/21 05:34:47;;;;;;;;;;;;;;;16.53;50.99;101043.44;5035858;28;20337;-85
2021/05/21 05:37:31;;;;;;;;;;;;;;;16.64;50.71;101044.59;5035507;28;20380;-83
2021/05/21 05:40:16;;;;;;;;;;;;;;;16.61;51.28;101048.03;5025854;28;19913;-83
2021/05/21 05:43:19;;;;;;;;;;;;;;;16.65;51.95;101037.97;5028232;28;19913;-82
2021/05/21 05:46:23;;;;;;;;;;;;;;;16.76;51.16;101033.56;5019990;28;19917;-84
2021/05/21 05:49:08;;;;;;;;;;;;;;;16.83;51.22;101028.28;5033398;28;19913;-84
2021/05/21 05:51:52;;;;;;;;;;;;;;;16.96;50.31;101023.53;5036641;28;19913;-84
2021/05/21 05:54:37;;;;;;;;;;;;;;;16.98;51.02;101030.28;5035238;28;19913;-80
2021/05/21 05:57:22;;;;;;;;;;;;;;;17.02;50.59;101024.88;5033354;28;19917;-84
2021/05/21 06:00:25;;;;;;;;;;;;;;;16.98;51.21;101035.78;5032406;28;19912;-83
2021/05/21 06:03:11;;;;;;;;;;;;;;;17.13;50.52;101028.72;5034614;28;19912;-84
2021/05/21 06:05:56;;;;;;;;;;;;;;;17.24;50.09;101029.00;5032046;28;19916;-84
2021/05/21 06:08:42;;;;;;;;;;;;;;;17.40;49.56;101038.06;5036039;28;19913;-84
2021/05/21 06:11:26;;;;;;;;;;;;;;;17.38;49.95;101041.16;5034907;28;19913;-84
2021/05/21 06:14:11;;;;;;;;;;;;;;;17.35;49.83;101046.56;5032089;28;20177;-84
2021/05/21 06:16:56;;;;;;;;;;;;;;;17.25;49.98;101041.59;5036337;28;19913;-83
2021/05/21 06:19:40;;;;;;;;;;;;;;;17.22;50.22;101047.81;5034626;28;19913;-84
2021/05/21 06:22:26;;;;;;;;;;;;;;;17.36;49.98;101050.94;5032489;28;19912;-83
2021/05/21 06:31:21;;;;;;;;;;;;;;;17.31;50.78;101038.25;5036459;28;19913;-84
2021/05/21 06:34:05;;;;;;;;;;;;;;;17.28;50.55;101040.88;5034818;28;19913;-80
2021/05/21 06:36:50;;;;;;;;;;;;;;;17.37;49.94;101049.78;5032923;28;19913;-84
2021/05/21 06:42:39;;;;;;;;;;;;;;;17.49;49.62;101050.50;5034720;28;19913;-84
2021/05/21 06:45:24;;;;;;;;;;;;;;;17.46;48.87;101048.47;5030571;28;19917;-82
2021/05/21 06:48:09;;;;;;;;;;;;;;;17.51;48.13;101045.44;5036427;28;19913;-84
2021/05/21 06:50:53;;;;;;;;;;;;;;;17.49;47.45;101052.44;5034468;28;19913;-80
2021/05/21 06:53:38;;;;;;;;;;;;;;;17.39;48.29;101058.47;5031953;28;19913;-82
2021/05/21 06:56:23;;;;;;;;;;;;;;;17.38;49.08;101065.91;5035737;28;19913;-84
2021/05/21 06:59:07;;;;;;;;;;;;;;;17.33;49.47;101066.16;5042726;28;19917;-84
2021/05/21 07:01:52;;;;;;;;;;;;;;;17.33;49.18;101065.38;5037014;28;20379;-81
2021/05/21 07:04:36;;;;;;;;;;;;;;;17.43;49.02;101070.34;5040866;28;19913;-84
2021/05/21 07:07:21;;;;;;;;;;;;;;;17.80;47.84;101071.75;5040347;28;19913;-86
2021/05/21 07:10:09;;;;;;;;;;;;;;;18.46;46.29;101064.63;5037636;28;19913;-83
2021/05/21 07:12:54;;;;;;;;;;;;;;;18.84;43.66;101061.16;5041419;28;19917;-83
2021/05/21 07:15:39;;;;;;;;;;;;;;;18.57;43.35;101055.50;5024111;28;19913;-87
2021/05/21 07:18:25;;;;;;;;;;;;;;;18.55;42.22;101052.28;5037526;28;19917;-85
2021/05/21 07:21:09;;;;;;;;;;;;;;;19.16;43.51;101041.31;5026780;28;20371;-87
2021/05/21 07:23:55;;;;;;;;;;;;;;;19.73;43.17;101042.38;4979553;28;19929;-76
2021/05/21 07:26:39;;;;;;;;;;;;;;;19.70;41.96;101042.31;4979902;28;20317;-75
2021/05/21 07:29:25;;;;;;;;;;;;;;;20.12;41.89;101034.69;4978676;28;19914;-75
2021/05/21 07:32:10;;;;;;;;;;;;;;;19.93;41.13;101032.03;4976931;28;19917;-75
2021/05/21 07:34:54;;;;;;;;;;;;;;;19.80;42.84;101016.84;4979402;28;19914;-75
2021/05/21 07:37:39;;;;;;;;;;;;;;;19.88;41.80;101008.31;4978655;28;19918;-75
2021/05/21 07:40:24;;;;;;;;;;;;;;;20.12;41.79;100986.94;4976370;28;19914;-75
2021/05/21 07:43:27;;;;;;;;;;;;;;;19.65;43.09;100985.47;4976418;28;19914;-75
2021/05/21 07:46:12;;;;;;;;;;;;;;;19.37;43.96;100984.97;4977672;28;19914;-76
2021/05/21 07:48:57;;;;;;;;;;;;;;;19.01;44.83;100997.31;4981833;28;19914;-76
2021/05/21 07:51:41;;;;;;;;;;;;;;;19.04;45.04;101010.38;4980275;28;19914;-76
2021/05/21 07:54:25;;;;;;;;;;;;;;;19.16;44.88;101001.94;4978528;28;20302;-76
2021/05/21 07:57:11;;;;;;;;;;;;;;;19.15;44.91;101016.88;4976322;28;19922;-76
2021/05/21 07:59:55;;;;;;;;;;;;;;;19.40;44.36;101020.88;4979950;28;19914;-75
2021/05/21 08:02:41;;;;;;;;;;;;;;;19.55;43.33;101024.72;4978054;28;19918;-76
2021/05/21 08:05:25;;;;;;;;;;;;;;;19.77;42.97;101034.13;4976052;28;19914;-76
2021/05/21 08:08:10;;;;;;;;;;;;;;;19.13;43.61;101027.47;4979516;28;19917;-76
2021/05/21 08:13:58;;;;;;;;;;;;;;;19.85;43.24;101027.59;4999959;28;19913;-76
2021/05/21 08:16:43;;;;;;;;;;;;;;;19.78;44.96;101027.47;4995492;28;19913;-77
2021/05/21 08:22:50;;;;;;;;;;;;;;;19.69;44.74;101008.41;4997611;28;19917;-77
2021/05/21 08:28:38;;;;;;;;;;;;;;;19.51;45.88;100991.53;4999958;28;19914;-76
2021/05/21 08:31:23;;;;;;;;;;;;;;;19.29;47.26;100986.00;4998495;28;19913;-77
2021/05/21 08:34:08;;;;;;;;;;;;;;;19.45;46.01;100965.47;4996087;28;19914;-77
2021/05/21 08:36:54;;;;;;;;;;;;;;;19.41;46.31;100963.75;5000043;28;19913;-77
2021/05/21 08:39:39;;;;;;;;;;;;;;;19.50;46.14;100947.78;4998404;28;19918;-77
2021/05/21 08:42:27;;;;;;;;;;;;;;;19.42;47.72;100930.28;4996421;28;19913;-77
2021/05/21 08:45:16;;;;;;;;;;;;;;;19.58;47.20;100953.06;4999907;28;19914;-77
2021/05/21 08:48:02;;;;;;;;;;;;;;;19.43;47.23;100967.75;4997977;28;19972;-76
2021/05/21 08:50:49;;;;;;;;;;;;;;;19.53;46.81;100978.19;4996383;28;19913;-77
2021/05/21 08:56:36;;;;;;;;;;;;;;;19.70;46.92;100993.44;4997245;28;19914;-76
2021/05/21 08:59:22;;;;;;;;;;;;;;;19.70;47.21;100992.66;4995090;28;20326;-77
2021/05/21 09:02:26;;;;;;;;;;;;;;;19.80;46.31;100990.06;4998864;28;19914;-77
2021/05/21 09:05:11;;;;;;;;;;;;;;;20.10;45.50;100998.38;4996612;28;20321;-77
2021/05/21 09:07:56;;;;;;;;;;;;;;;20.52;45.29;101008.47;4996243;28;19917;-78
2021/05/21 09:10:44;;;;;;;;;;;;;;;20.62;44.58;101013.34;5000704;28;19914;-77
2021/05/21 09:13:33;;;;;;;;;;;;;;;20.64;44.43;101016.50;4997041;28;19913;-82
2021/05/21 09:16:23;;;;;;;;;;;;;;;20.05;46.25;100995.94;5014578;28;19917;-85
2021/05/21 09:19:13;;;;;;;;;;;;;;;20.19;45.74;100982.34;5014064;28;19906;-85
2021/05/21 09:22:02;;;;;;;;;;;;;;;20.03;46.16;100973.44;5027029;28;19913;-84
2021/05/21 09:24:48;;;;;;;;;;;;;;;20.29;48.01;100965.13;5012320;28;19913;-82
2021/05/21 09:27:35;;;;;;;;;;;;;;;20.51;45.08;100963.47;5006381;28;20377;-80
2021/05/21 09:30:20;;;;;;;;;;;;;;;20.35;44.71;100958.13;5002847;28;19918;-80
2021/05/21 09:33:05;;;;;;;;;;;;;;;20.66;45.20;100967.19;5007743;28;19921;-80
2021/05/21 09:35:56;;;;;;;;;;;;;;;20.67;43.71;100968.78;5007210;28;19917;-80
2021/05/21 09:38:53;;;;;;;;;;;;;;;20.59;44.68;100973.41;5001284;28;19917;-79
2021/05/21 09:41:55;;;;;;;;;;;;;;;20.75;44.83;100968.47;5003190;28;19913;-80
2021/05/21 09:44:40;;;;;;;;;;;;;;;21.04;42.76;100977.06;5012377;28;19918;-82
2021/05/21 09:47:44;;;;;;;;;;;;;;;21.30;40.87;100963.13;5003361;28;19913;-83
2021/05/21 09:50:40;;;;;;;;;;;;;;;20.78;42.50;100959.41;4981192;28;19914;-82
2021/05/21 09:53:25;;;;;;;;;;;;;;;20.99;38.57;100964.38;4979511;28;19918;-82
2021/05/21 09:56:19;;;;;;;;;;;;;;;21.07;40.62;100971.59;4982604;28;19918;-82
2021/05/21 09:59:06;;;;;;;;;;;;;;;21.09;41.26;100963.69;4980625;28;19918;-82
2021/05/21 10:01:51;;;;;;;;;;;;;;;21.24;40.18;100961.88;4978678;28;20326;-82
2021/05/21 10:04:35;;;;;;;;;;;;;;;21.28;38.53;100966.25;4978463;28;19914;-82
2021/05/21 10:07:21;;;;;;;;;;;;;;;21.33;38.65;100968.69;4978682;28;19917;-82
2021/05/21 10:10:06;;;;;;;;;;;;;;;21.40;38.31;100969.91;4978241;28;20394;-82
2021/05/21 10:15:55;;;;;;;;;;;;;;;20.98;39.81;100951.72;4978888;28;20290;-83
2021/05/21 10:18:44;;;;;;;;;;;;;;;21.33;38.46;100957.59;4978720;28;19918;-83
2021/05/21 10:21:29;;;;;;;;;;;;;;;21.36;36.97;100955.28;4978237;28;19914;-84
2021/05/21 10:24:15;;;;;;;;;;;;;;;21.01;39.45;100944.66;5001391;28;19914;-83
2021/05/21 10:27:01;;;;;;;;;;;;;;;21.34;37.65;100947.34;4994735;28;19914;-83
2021/05/21 10:29:57;;;;;;;;;;;;;;;21.29;36.74;100934.66;5004116;28;19914;-83
2021/05/21 10:32:41;;;;;;;;;;;;;;;21.50;36.51;100925.75;5003641;28;19913;-80
2021/05/21 10:35:25;;;;;;;;;;;;;;;21.21;37.86;100924.72;4996073;28;19913;-80
2021/05/21 10:41:54;;;;;;;;;;;;;;;21.27;35.66;100912.13;4994339;28;19914;-79
2021/05/21 10:45:08;;;;;;;;;;;;;;;20.73;38.13;100904.47;4995349;28;19914;-80
2021/05/21 10:47:56;;;;;;;;;;;;;;;20.40;38.95;100902.53;5004082;28;19914;-80
2021/05/21 10:50:41;;;;;;;;;;;;;;;20.30;39.06;100907.91;5000015;28;19913;-82
2021/05/21 10:53:26;;;;;;;;;;;;;;;20.14;39.38;100896.25;4978672;28;19914;-86
2021/05/21 10:56:10;;;;;;;;;;;;;;;20.59;37.78;100884.19;4999763;28;19917;-86
2021/05/21 10:59:01;;;;;;;;;;;;;;;20.49;37.94;100889.22;5003348;28;20309;-85
2021/05/21 11:01:46;;;;;;;;;;;;;;;20.96;35.38;100892.47;4996997;28;19929;-84
2021/05/21 11:04:32;;;;;;;;;;;;;;;20.68;37.43;100893.75;5002415;28;19914;-84
2021/05/21 11:07:35;;;;;;;;;;;;;;;20.51;38.03;100888.06;4998532;28;19913;-84
2021/05/21 11:10:42;;;;;;;;;;;;;;;20.91;35.81;100877.00;4994813;28;20073;-84
2021/05/21 11:14:02;;;;;;;;;;;;;;;20.33;36.74;100865.75;4982053;28;19914;-86
2021/05/21 11:20:19;;;;;;;;;;;;;;;20.32;35.19;100856.66;4993070;28;19918;-86
2021/05/21 11:23:09;;;;;;;;;;;;;;;20.05;36.92;100858.69;4981236;28;19931;-84
2021/05/21 11:26:25;;;;;;;;;;;;;;;19.98;36.00;100857.81;4982217;28;19914;-85
2021/05/21 11:29:12;;;;;;;;;;;;;;;19.93;36.58;100850.66;4976989;28;19918;-84
2021/05/21 11:31:56;;;;;;;;;;;;;;;19.80;36.10;100857.59;5001802;28;19913;-85
2021/05/21 11:34:42;;;;;;;;;;;;;;;19.97;35.65;100857.00;5000214;28;19913;-85
2021/05/21 11:37:27;;;;;;;;;;;;;;;19.80;36.63;100852.06;4998656;28;19914;-85
2021/05/21 11:40:12;;;;;;;;;;;;;;;19.75;36.95;100848.84;5001847;28;20297;-84
2021/05/21 11:42:58;;;;;;;;;;;;;;;19.73;36.54;100838.16;4998013;28;19914;-84
2021/05/21 11:45:47;;;;;;;;;;;;;;;19.76;36.68;100842.16;5011409;28;20330;-84
2021/05/21 11:48:37;;;;;;;;;;;;;;;19.75;36.49;100835.03;5006163;28;19913;-85
2021/05/21 11:51:25;;;;;;;;;;;;;;;19.65;36.91;100839.25;4994735;28;19914;-84
2021/05/21 11:54:10;;;;;;;;;;;;;;;19.69;36.97;100836.53;4992112;28;19914;-85
2021/05/21 11:56:55;;;;;;;;;;;;;;;19.70;37.27;100832.59;4995664;28;19914;-85
2021/05/21 11:59:42;;;;;;;;;;;;;;;19.78;37.02;100823.25;4992146;28;19917;-84
2021/05/21 12:02:27;;;;;;;;;;;;;;;19.96;36.22;100830.56;4990367;28;19922;-85
2021/05/21 12:05:11;;;;;;;;;;;;;;;19.92;36.71;100823.41;4998682;28;19914;-84
2021/05/21 12:07:57;;;;;;;;;;;;;;;19.90;36.67;100817.50;4994977;28;19922;-85
2021/05/21 12:10:52;;;;;;;;;;;;;;;19.86;36.67;100825.72;4991578;28;19914;-85
2021/05/21 12:13:38;;;;;;;;;;;;;;;19.91;37.00;100822.63;4991750;28;19914;-85
2021/05/21 12:16:24;;;;;;;;;;;;;;;19.84;37.38;100810.72;4992182;28;19913;-85
2021/05/21 12:19:10;;;;;;;;;;;;;;;19.83;37.50;100809.13;4989039;28;19918;-85
2021/05/21 12:21:55;;;;;;;;;;;;;;;19.94;36.86;100794.28;4993764;28;19914;-85
2021/05/21 12:24:41;;;;;;;;;;;;;;;20.06;36.54;100762.88;4992883;28;19914;-86
2021/05/21 12:27:26;;;;;;;;;;;;;;;20.32;35.21;100760.00;4992445;28;19921;-86
2021/05/21 12:30:11;;;;;;;;;;;;;;;20.29;35.65;100760.72;4996193;28;19918;-85
2021/05/21 12:32:58;;;;;;;;;;;;;;;20.06;36.41;100768.38;4992577;28;19921;-84
2021/05/21 12:35:43;;;;;;;;;;;;;;;20.07;36.53;100759.72;5004770;28;20386;-84
2021/05/21 12:38:28;;;;;;;;;;;;;;;19.91;36.88;100752.84;4992880;28;19918;-82
2021/05/21 12:41:13;;;;;;;;;;;;;;;20.08;36.62;100749.47;4996240;28;19914;-85
2021/05/21 12:44:08;;;;;;;;;;;;;;;20.59;34.48;100732.22;4993384;28;19928;-84
2021/05/21 12:46:53;;;;;;;;;;;;;;;20.53;34.89;100744.78;4995798;28;20293;-86
2021/05/21 12:49:38;;;;;;;;;;;;;;;20.37;35.46;100737.53;4995111;28;19914;-84
2021/05/21 12:52:22;;;;;;;;;;;;;;;20.49;34.36;100730.94;4989632;28;20381;-84
2021/05/21 12:55:13;;;;;;;;;;;;;;;20.15;35.62;100738.50;4994624;28;20390;-83
2021/05/21 12:58:16;;;;;;;;;;;;;;;20.03;36.27;100730.47;4992169;28;19914;-83
2021/05/21 13:01:01;;;;;;;;;;;;;;;20.03;36.36;100730.47;4991190;28;19922;-83
2021/05/21 13:03:49;;;;;;;;;;;;;;;20.11;36.46;100729.41;5004758;28;19902;-82
2021/05/21 13:09:37;;;;;;;;;;;;;;;20.18;35.99;100721.16;4996725;28;19914;-82
2021/05/21 13:12:49;;;;;;;;;;;;;;;20.90;32.82;100718.63;4993126;28;19914;-81
2021/05/21 13:15:52;;;;;;;;;;;;;;;20.63;35.04;100708.16;4989819;28;19914;-83
2021/05/21 13:18:40;;;;;;;;;;;;;;;20.58;34.47;100714.84;4992490;28;19917;-82
2021/05/21 13:21:25;;;;;;;;;;;;;;;20.73;33.74;100718.50;4988779;28;19914;-81
2021/05/21 13:27:18;;;;;;;;;;;;;;;21.30;31.46;100703.88;5049460;28;19917;-80
2021/05/21 13:30:12;;;;;;;;;;;;;;;20.78;33.72;100693.25;5046074;28;19912;-82
2021/05/21 13:32:57;;;;;;;;;;;;;;;20.51;34.42;100700.97;5048316;28;19913;-79
2021/05/21 13:35:42;;;;;;;;;;;;;;;21.16;30.23;100689.97;5046884;28;19913;-80
2021/05/21 13:38:27;;;;;;;;;;;;;;;21.34;31.29;100690.84;5045423;28;19913;-81
2021/05/21 13:41:12;;;;;;;;;;;;;;;21.16;32.87;100687.22;5048159;28;19917;-81
2021/05/21 13:43:56;;;;;;;;;;;;;;;21.10;32.31;100677.66;5050294;28;20315;-82
2021/05/21 13:46:41;;;;;;;;;;;;;;;20.66;34.24;100671.47;5031165;28;19913;-81
2021/05/21 13:49:44;;;;;;;;;;;;;;;20.81;33.88;100659.34;5045898;28;19913;-81
2021/05/21 13:52:29;;;;;;;;;;;;;;;20.88;33.88;100662.13;5032002;28;19913;-80
2021/05/21 13:55:14;;;;;;;;;;;;;;;20.50;34.87;100666.22;5042713;28;20369;-80
2021/05/21 13:57:59;;;;;;;;;;;;;;;20.46;34.86;100657.94;5047225;28;19913;-81
2021/05/21 14:01:02;;;;;;;;;;;;;;;20.56;34.89;100669.44;5045783;28;20365;-81
2021/05/21 14:03:46;;;;;;;;;;;;;;;20.40;35.26;100662.22;5044396;28;19917;-78
2021/05/21 14:06:31;;;;;;;;;;;;;;;20.25;35.63;100654.16;5040169;28;19913;-80
2021/05/21 14:09:16;;;;;;;;;;;;;;;20.18;35.73;100668.69;5046855;28;19912;-82
2021/05/21 14:12:01;;;;;;;;;;;;;;;20.25;35.69;100662.44;5044041;28;19912;-82
2021/05/21 14:14:46;;;;;;;;;;;;;;;20.53;34.71;100664.66;5032322;28;19913;-81
2021/05/21 14:17:30;;;;;;;;;;;;;;;20.77;33.38;100653.81;5046524;28;19917;-83
2021/05/21 14:20:17;;;;;;;;;;;;;;;20.54;34.85;100652.44;5044812;28;19925;-83
2021/05/21 14:26:07;;;;;;;;;;;;;;;20.63;34.51;100641.84;5046495;28;20823;-83
2021/05/21 14:28:51;;;;;;;;;;;;;;;20.79;33.79;100629.31;5039674;28;20300;-81
2021/05/21 14:31:40;;;;;;;;;;;;;;;20.89;33.90;100633.31;5047567;28;19913;-81
2021/05/21 14:34:24;;;;;;;;;;;;;;;20.70;34.76;100634.41;5036829;28;19913;-80
2021/05/21 14:37:09;;;;;;;;;;;;;;;20.37;35.00;100609.69;5042736;28;19920;-81
2021/05/21 14:39:54;;;;;;;;;;;;;;;20.20;35.73;100616.66;5047221;28;19917;-79
2021/05/21 14:42:38;;;;;;;;;;;;;;;20.12;36.02;100611.44;5046351;28;20288;-80
2021/05/21 14:45:23;;;;;;;;;;;;;;;20.15;35.90;100600.44;5039721;28;19932;-82
2021/05/21 14:48:08;;;;;;;;;;;;;;;19.99;36.53;100608.19;5051456;28;19913;-80
2021/05/21 14:50:52;;;;;;;;;;;;;;;19.97;36.48;100603.03;5045527;28;20376;-79
2021/05/21 14:53:36;;;;;;;;;;;;;;;20.04;36.14;100607.84;5044238;28;19912;-80
2021/05/21 14:56:22;;;;;;;;;;;;;;;19.92;36.35;100603.38;5049338;28;19920;-81
2021/05/21 14:59:07;;;;;;;;;;;;;;;19.91;36.14;100601.03;5031670;28;19917;-81
2021/05/21 15:01:52;;;;;;;;;;;;;;;19.92;36.39;100597.88;5044719;28;19912;-80
2021/05/21 15:04:38;;;;;;;;;;;;;;;19.84;36.08;100598.19;5046798;28;20368;-81
2021/05/21 15:07:23;;;;;;;;;;;;;;;19.82;35.95;100592.25;5044224;28;19913;-81
2021/05/21 15:10:09;;;;;;;;;;;;;;;19.84;36.04;100595.44;5044393;28;19913;-80
2021/05/21 15:13:34;;;;;;;;;;;;;;;19.83;35.76;100588.31;5041948;28;20396;-81
2021/05/21 15:28:14;;;;;;;;;;;;;;;19.76;35.87;100588.28;5053234;28;19913;-81
2021/05/21 15:30:58;;;;;;;;;;;;;;;19.77;35.50;100576.03;5046581;28;19912;-81
2021/05/21 15:33:43;;;;;;;;;;;;;;;19.73;35.82;100577.97;5048496;28;19917;-81